Time;durP1;ratioP1;P1;durP2;ratioP2;P2;SDS_P1;SDS_P2;PMS_P1;PMS_P2;Temp;Humidity;BMP_temperature;BMP_pressure;BME280_temperature;BME280_humidity;BME280_pressure;Samples;Min_cycle;Max_cycle;Signal;HPM_P1;HPM_P2
2023/08/22 00:00:57;;;;;;;14.15;7.90;;;24.70;85.10;;;;;;5093332;28;20060;-69
2023/08/22 00:04:01;;;;;;;9.15;7.22;;;24.60;85.50;;;;;;5093698;28;20498;-69
2023/08/22 00:07:06;;;;;;;14.40;7.88;;;24.60;85.60;;;;;;5093640;28;20518;-69
2023/08/22 00:10:10;;;;;;;12.38;6.93;;;24.60;85.00;;;;;;5093530;28;20062;-69
2023/08/22 00:13:13;;;;;;;13.15;8.10;;;24.60;85.50;;;;;;5093213;28;20043;-69
2023/08/22 00:16:18;;;;;;;11.55;7.20;;;24.60;86.50;;;;;;5093125;28;20039;-69
2023/08/22 00:19:23;;;;;;;11.18;7.70;;;24.60;86.70;;;;;;5093281;28;20039;-68
2023/08/22 00:22:27;;;;;;;12.73;7.75;;;24.60;86.80;;;;;;5080372;28;20047;-69
2023/08/22 00:25:31;;;;;;;12.27;8.68;;;24.60;86.80;;;;;;5093322;28;20058;-69
2023/08/22 00:28:35;;;;;;;14.18;8.07;;;24.60;88.00;;;;;;5093293;28;20217;-68
2023/08/22 00:31:38;;;;;;;13.13;7.90;;;24.60;88.50;;;;;;5092695;28;20043;-69
2023/08/22 00:34:42;;;;;;;12.65;7.70;;;24.60;89.30;;;;;;5092731;28;20115;-69
2023/08/22 00:37:46;;;;;;;11.88;8.20;;;24.60;89.30;;;;;;5092568;28;20047;-69
2023/08/22 00:40:51;;;;;;;8.73;7.53;;;24.50;89.50;;;;;;5080477;28;20047;-68
2023/08/22 00:43:55;;;;;;;11.70;7.70;;;24.60;90.00;;;;;;5092796;28;20513;-68
2023/08/22 00:47:00;;;;;;;14.05;7.93;;;24.60;89.90;;;;;;5092636;28;20042;-69
2023/08/22 00:50:04;;;;;;;13.75;8.68;;;24.50;90.30;;;;;;5079920;28;20051;-69
2023/08/22 00:53:10;;;;;;;15.13;8.43;;;24.50;90.40;;;;;;5079979;28;20043;-69
2023/08/22 00:56:15;;;;;;;11.27;8.07;;;24.40;90.60;;;;;;5092225;28;20043;-68
2023/08/22 00:59:19;;;;;;;13.52;8.35;;;24.30;91.10;;;;;;5092524;28;20047;-69
2023/08/22 01:02:24;;;;;;;18.13;8.82;;;24.30;91.70;;;;;;5092440;28;20039;-68
2023/08/22 01:05:31;;;;;;;13.65;8.68;;;24.30;92.30;;;;;;5080020;28;20051;-69
2023/08/22 01:08:39;;;;;;;15.27;8.57;;;24.20;92.00;;;;;;5079944;28;20043;-68
2023/08/22 01:11:47;;;;;;;14.50;8.15;;;24.20;92.00;;;;;;5091533;28;20043;-69
2023/08/22 01:15:18;;;;;;;17.45;8.70;;;24.20;92.20;;;;;;5079226;28;20039;-69
2023/08/22 01:18:22;;;;;;;11.38;8.18;;;24.20;92.60;;;;;;5091932;28;20055;-69
2023/08/22 01:21:26;;;;;;;12.23;8.65;;;24.10;93.20;;;;;;5091685;28;20490;-69
2023/08/22 01:24:30;;;;;;;13.63;9.13;;;24.10;93.60;;;;;;5092009;28;20050;-69
2023/08/22 01:27:50;;;;;;;15.57;9.25;;;24.10;94.00;;;;;;5091692;28;20036;-69
2023/08/22 01:31:17;;;;;;;13.23;9.60;;;24.10;94.30;;;;;;5079376;28;20039;-69
2023/08/22 01:34:28;;;;;;;14.48;8.90;;;24.10;94.50;;;;;;5079554;28;20039;-69
2023/08/22 01:37:33;;;;;;;14.07;8.82;;;24.00;94.80;;;;;;5079278;28;20506;-68
2023/08/22 01:40:38;;;;;;;10.25;8.88;;;24.00;95.10;;;;;;5091548;28;20039;-69
2023/08/22 01:43:42;;;;;;;14.13;8.80;;;23.90;95.40;;;;;;5090923;28;20036;-69
2023/08/22 01:46:46;;;;;;;11.68;7.95;;;23.90;95.80;;;;;;5091772;28;20047;-69
2023/08/22 01:49:50;;;;;;;16.88;8.80;;;23.80;95.90;;;;;;5079192;28;20047;-69
2023/08/22 01:52:54;;;;;;;21.48;10.02;;;23.70;96.00;;;;;;5091456;28;20062;-69
2023/08/22 01:56:00;;;;;;;13.13;8.45;;;23.70;96.00;;;;;;5079017;28;20051;-69
2023/08/22 01:59:03;;;;;;;12.48;8.75;;;23.70;96.10;;;;;;5078719;28;20043;-70
2023/08/22 02:02:07;;;;;;;11.95;7.85;;;23.80;96.20;;;;;;5078920;28;20533;-69
2023/08/22 02:05:11;;;;;;;12.13;8.32;;;23.80;96.10;;;;;;5079108;28;20411;-69
2023/08/22 02:08:15;;;;;;;11.20;8.32;;;23.80;96.30;;;;;;5091471;28;20498;-69
2023/08/22 02:11:19;;;;;;;13.38;8.98;;;23.80;96.50;;;;;;5090767;28;20043;-69
2023/08/22 02:14:26;;;;;;;10.60;8.52;;;23.70;97.20;;;;;;5078949;28;20035;-69
2023/08/22 02:17:30;;;;;;;13.25;9.20;;;23.70;96.90;;;;;;5078426;28;20038;-69
2023/08/22 02:20:34;;;;;;;14.38;9.65;;;23.60;97.10;;;;;;5078729;28;20050;-69
2023/08/22 02:23:38;;;;;;;15.32;9.30;;;23.50;97.50;;;;;;5091516;28;20103;-69
2023/08/22 02:26:43;;;;;;;17.85;8.57;;;23.40;97.80;;;;;;5078602;28;20107;-69
2023/08/22 02:29:47;;;;;;;13.05;9.07;;;23.30;98.20;;;;;;5091101;28;20047;-69
2023/08/22 02:32:52;;;;;;;12.00;9.13;;;23.30;98.40;;;;;;5078152;28;20050;-69
2023/08/22 02:35:57;;;;;;;11.13;8.90;;;23.30;98.70;;;;;;5090676;28;20051;-69
2023/08/22 02:39:00;;;;;;;11.38;8.70;;;23.30;98.80;;;;;;5091161;28;20494;-69
2023/08/22 02:42:05;;;;;;;15.65;9.10;;;23.20;98.90;;;;;;5090702;28;20281;-69
2023/08/22 02:45:09;;;;;;;16.95;9.02;;;23.20;99.20;;;;;;5078561;28;20490;-70
2023/08/22 02:48:14;;;;;;;12.63;8.82;;;23.20;99.40;;;;;;5090253;28;20384;-69
2023/08/22 02:51:18;;;;;;;15.52;9.55;;;23.20;99.60;;;;;;5090310;28;20043;-69
2023/08/22 02:54:21;;;;;;;13.05;10.52;;;23.20;99.90;;;;;;5090788;28;20039;-69
2023/08/22 02:57:25;;;;;;;19.65;9.82;;;23.20;99.90;;;;;;5093374;28;20059;-70
2023/08/22 03:00:32;;;;;;;13.75;9.52;;;23.20;99.90;;;;;;5094947;28;20047;-69
2023/08/22 03:03:37;;;;;;;16.25;10.52;;;23.10;99.90;;;;;;5094324;28;20039;-69
2023/08/22 03:06:41;;;;;;;15.35;10.05;;;23.00;99.90;;;;;;5082306;28;20047;-69
2023/08/22 03:09:45;;;;;;;12.50;10.45;;;22.90;99.90;;;;;;5094494;28;20047;-69
2023/08/22 03:12:50;;;;;;;13.90;9.63;;;22.80;99.90;;;;;;5081763;28;20051;-69
2023/08/22 03:15:55;;;;;;;20.05;10.13;;;22.80;99.90;;;;;;5081605;28;20043;-69
2023/08/22 03:18:59;;;;;;;11.63;9.88;;;22.80;99.90;;;;;;5081994;28;20063;-69
2023/08/22 03:22:02;;;;;;;12.05;9.52;;;22.70;99.90;;;;;;5093728;28;20031;-68
2023/08/22 03:25:07;;;;;;;15.85;9.13;;;22.80;99.90;;;;;;5094346;28;20248;-69
2023/08/22 03:28:13;;;;;;;12.88;9.50;;;22.80;99.90;;;;;;5081704;28;20047;-69
2023/08/22 03:31:17;;;;;;;17.45;9.55;;;22.80;99.90;;;;;;5081043;28;20038;-69
2023/08/22 03:34:21;;;;;;;14.07;9.98;;;22.80;99.90;;;;;;5094134;28;20497;-69
2023/08/22 03:37:25;;;;;;;15.18;10.88;;;22.70;99.90;;;;;;5081392;28;20039;-70
2023/08/22 03:40:30;;;;;;;12.05;10.73;;;22.60;99.90;;;;;;5094039;28;20043;-69
2023/08/22 03:43:34;;;;;;;13.23;9.65;;;22.60;99.90;;;;;;5081137;28;20039;-69
2023/08/22 03:51:09;;;;;;;17.88;10.45;;;22.50;99.90;;;;;;5093688;28;20055;-69
2023/08/22 03:54:14;;;;;;;14.88;10.88;;;22.40;99.90;;;;;;5081523;28;20398;-68
2023/08/22 03:57:18;;;;;;;12.98;9.88;;;22.40;99.90;;;;;;5081046;28;20043;-68
2023/08/22 04:00:22;;;;;;;15.40;10.40;;;22.30;99.90;;;;;;5080776;28;20494;-69
2023/08/22 04:03:27;;;;;;;17.60;10.95;;;22.30;99.90;;;;;;5080640;28;20386;-69
2023/08/22 04:06:31;;;;;;;19.60;10.50;;;22.30;99.90;;;;;;5080596;28;20047;-69
2023/08/22 04:09:35;;;;;;;15.20;10.40;;;22.20;99.90;;;;;;5080873;28;20051;-69
2023/08/22 04:12:41;;;;;;;13.80;10.88;;;22.20;99.90;;;;;;5080362;28;20058;-69
2023/08/22 04:15:47;;;;;;;18.52;12.43;;;21.90;99.90;;;;;;5081233;28;20039;-69
2023/08/22 04:18:51;;;;;;;23.10;11.93;;;21.80;99.90;;;;;;5080744;28;20039;-68
2023/08/22 04:21:54;;;;;;;13.55;10.90;;;21.70;99.90;;;;;;5093058;28;20043;-69
2023/08/22 04:24:58;;;;;;;18.30;11.93;;;21.70;99.90;;;;;;5093385;28;20055;-69
2023/08/22 04:28:04;;;;;;;14.45;11.07;;;21.70;99.90;;;;;;5080560;28;20043;-70
2023/08/22 04:31:08;;;;;;;17.05;11.65;;;21.60;99.90;;;;;;5080602;28;20047;-68
2023/08/22 04:34:12;;;;;;;18.70;11.20;;;21.70;99.90;;;;;;5080586;28;20035;-69
2023/08/22 04:37:24;;;;;;;15.05;10.50;;;21.70;99.90;;;;;;5080353;28;20047;-69
2023/08/22 04:40:28;;;;;;;16.65;10.60;;;21.70;99.90;;;;;;5080221;28;20055;-69
2023/08/22 04:44:01;;;;;;;15.77;10.38;;;21.80;99.90;;;;;;5092677;28;20391;-69
2023/08/22 04:47:05;;;;;;;14.95;11.18;;;21.80;99.90;;;;;;5080555;28;20043;-68
2023/08/22 04:50:09;;;;;;;14.55;10.63;;;21.90;99.90;;;;;;5080420;28;20387;-68
2023/08/22 04:53:13;;;;;;;20.42;10.60;;;22.00;99.90;;;;;;5092396;28;20044;-68
2023/08/22 04:56:17;;;;;;;15.23;10.77;;;22.00;99.90;;;;;;5079880;28;20538;-69
2023/08/22 04:59:22;;;;;;;18.60;11.10;;;22.00;99.90;;;;;;5080221;28;20039;-69
2023/08/22 05:02:27;;;;;;;20.10;10.70;;;22.00;99.90;;;;;;5079777;28;20442;-69
2023/08/22 05:05:31;;;;;;;29.42;11.75;;;22.00;99.90;;;;;;5079802;28;20039;-69
2023/08/22 05:08:36;;;;;;;29.15;11.00;;;21.90;99.90;;;;;;5079666;28;20036;-68
2023/08/22 05:11:40;;;;;;;20.45;10.27;;;22.00;99.90;;;;;;5079514;28;20047;-68
2023/08/22 05:14:45;;;;;;;35.97;11.88;;;22.10;99.90;;;;;;5079986;28;20070;-68
2023/08/22 05:17:49;;;;;;;23.67;11.65;;;22.30;99.90;;;;;;5079271;28;20050;-69
2023/08/22 05:20:53;;;;;;;26.85;10.52;;;22.50;99.90;;;;;;5091954;28;20059;-69
2023/08/22 05:23:57;;;;;;;16.48;10.27;;;23.70;99.90;;;;;;5079366;28;20047;-69
2023/08/22 05:27:01;;;;;;;16.10;10.05;;;26.00;99.90;;;;;;5079232;28;20501;-69
2023/08/22 05:30:08;;;;;;;18.65;10.25;;;27.70;99.90;;;;;;5079174;28;20411;-69
2023/08/22 05:33:12;;;;;;;17.13;9.80;;;29.30;98.40;;;;;;5079285;28;20051;-69
2023/08/22 05:36:16;;;;;;;19.45;9.25;;;30.70;96.00;;;;;;5079396;28;20406;-69
2023/08/22 05:39:20;;;;;;;18.92;8.38;;;31.90;93.50;;;;;;5091761;28;20047;-69
2023/08/22 05:42:25;;;;;;;22.08;8.77;;;33.00;91.90;;;;;;5079010;28;20058;-69
2023/08/22 05:45:29;;;;;;;19.90;9.07;;;33.70;90.60;;;;;;5079319;28;20043;-69
2023/08/22 05:48:33;;;;;;;13.88;8.90;;;34.30;89.60;;;;;;5091488;28;20054;-69
2023/08/22 05:51:37;;;;;;;15.80;8.40;;;34.60;88.70;;;;;;5078895;28;20316;-69
2023/08/22 05:54:41;;;;;;;12.50;8.15;;;34.70;86.90;;;;;;5078682;28;20031;-70
2023/08/22 05:57:46;;;;;;;14.38;8.20;;;35.30;86.60;;;;;;5078701;28;20051;-70
2023/08/22 06:00:50;;;;;;;11.10;7.90;;;35.90;83.20;;;;;;5079021;28;20047;-70
2023/08/22 06:03:55;;;;;;;12.07;7.22;;;34.40;84.00;;;;;;5078696;28;20039;-70
2023/08/22 06:06:59;;;;;;;11.23;7.47;;;34.30;84.90;;;;;;5078862;28;20047;-69
2023/08/22 06:10:03;;;;;;;12.82;7.20;;;34.80;84.20;;;;;;5091202;28;20043;-69
2023/08/22 06:13:08;;;;;;;12.93;8.07;;;35.50;83.60;;;;;;5077891;28;20055;-70
2023/08/22 06:16:15;;;;;;;14.52;7.93;;;35.90;82.90;;;;;;5090897;28;20047;-71
2023/08/22 06:19:20;;;;;;;10.70;7.93;;;34.30;82.40;;;;;;5078531;28;20035;-70
2023/08/22 06:22:24;;;;;;;12.43;7.95;;;33.30;85.50;;;;;;5090446;28;20043;-70
2023/08/22 06:25:28;;;;;;;12.60;7.55;;;33.50;84.70;;;;;;5091178;28;20402;-70
2023/08/22 06:28:32;;;;;;;15.85;7.38;;;33.80;84.80;;;;;;5078373;28;20043;-71
2023/08/22 06:31:36;;;;;;;10.55;7.10;;;35.00;84.00;;;;;;5070560;28;20047;-70
2023/08/22 06:34:40;;;;;;;16.58;8.45;;;35.90;82.90;;;;;;5075429;28;20478;-70
2023/08/22 06:37:44;;;;;;;14.95;8.25;;;35.60;82.20;;;;;;5087089;28;20043;-70
2023/08/22 06:40:49;;;;;;;10.82;7.18;;;34.80;83.10;;;;;;5064568;28;20055;-70
2023/08/22 06:43:53;;;;;;;7.40;6.57;;;34.50;84.20;;;;;;5095010;28;20485;-70
2023/08/22 06:46:57;;;;;;;10.93;7.25;;;35.10;83.80;;;;;;5090877;28;20050;-69
2023/08/22 06:50:03;;;;;;;10.52;6.78;;;36.00;82.50;;;;;;5088105;28;20091;-70
2023/08/22 06:53:07;;;;;;;12.00;7.00;;;36.50;81.50;;;;;;5086163;28;20402;-70
2023/08/22 06:56:11;;;;;;;17.33;6.90;;;36.80;80.40;;;;;;5100605;28;20039;-70
2023/08/22 06:59:16;;;;;;;8.30;6.53;;;35.80;81.40;;;;;;5089288;28;20051;-71
2023/08/22 07:02:20;;;;;;;9.30;6.60;;;36.40;80.50;;;;;;5088308;28;20044;-71
2023/08/22 07:05:24;;;;;;;8.02;6.82;;;35.80;81.10;;;;;;5089000;28;20035;-71
2023/08/22 07:08:28;;;;;;;9.60;6.78;;;34.60;82.60;;;;;;5082979;28;20043;-70
2023/08/22 07:11:32;;;;;;;10.65;6.78;;;34.40;83.00;;;;;;5083460;28;20055;-70
2023/08/22 07:14:41;;;;;;;8.98;7.20;;;34.80;82.60;;;;;;5089041;28;20406;-70
2023/08/22 07:17:46;;;;;;;13.02;7.30;;;34.20;83.20;;;;;;5085964;28;20047;-71
2023/08/22 07:20:52;;;;;;;8.55;6.28;;;34.00;84.10;;;;;;5083409;28;20494;-70
2023/08/22 07:23:55;;;;;;;11.80;6.82;;;34.20;85.00;;;;;;5090831;28;20046;-70
2023/08/22 07:26:59;;;;;;;11.10;7.03;;;36.10;82.50;;;;;;5081699;28;20051;-71
2023/08/22 07:30:04;;;;;;;13.10;6.80;;;35.60;81.50;;;;;;5074158;28;20047;-70
2023/08/22 07:33:10;;;;;;;8.88;7.15;;;35.20;81.20;;;;;;5085805;28;20055;-70
2023/08/22 07:36:21;;;;;;;8.80;5.88;;;36.10;81.40;;;;;;5091294;28;20043;-71
2023/08/22 07:39:27;;;;;;;8.95;6.60;;;36.60;79.40;;;;;;5085381;28;20087;-70
2023/08/22 07:42:31;;;;;;;8.60;6.80;;;36.10;78.70;;;;;;5089443;28;20047;-70
2023/08/22 07:45:35;;;;;;;12.18;6.97;;;34.80;81.10;;;;;;5090427;28;20063;-70
2023/08/22 07:48:39;;;;;;;11.02;6.38;;;34.70;80.60;;;;;;5085167;28;20505;-70
2023/08/22 07:51:43;;;;;;;11.73;6.35;;;36.20;80.80;;;;;;5095568;28;20039;-70
2023/08/22 07:54:47;;;;;;;8.70;6.45;;;36.80;78.60;;;;;;5091717;28;20058;-70
2023/08/22 07:57:52;;;;;;;8.00;5.95;;;37.80;77.50;;;;;;5094833;28;20525;-71
2023/08/22 08:00:56;;;;;;;10.82;6.68;;;36.60;77.10;;;;;;5090801;28;20043;-70
2023/08/22 08:04:00;;;;;;;9.38;5.93;;;36.90;77.60;;;;;;5089248;28;20218;-71
2023/08/22 08:07:04;;;;;;;11.30;6.35;;;36.00;78.40;;;;;;5087499;28;20047;-70
2023/08/22 08:10:09;;;;;;;10.77;7.03;;;35.80;79.10;;;;;;5090260;28;20039;-71
2023/08/22 08:13:14;;;;;;;8.27;6.68;;;37.30;76.90;;;;;;5092334;28;20046;-70
2023/08/22 08:16:18;;;;;;;10.50;6.30;;;36.70;75.80;;;;;;5091706;28;20071;-71
2023/08/22 08:19:22;;;;;;;11.90;6.07;;;36.50;77.80;;;;;;5092340;28;20042;-70
2023/08/22 08:22:26;;;;;;;9.73;6.22;;;39.40;75.20;;;;;;5089572;28;20552;-71
2023/08/22 08:25:30;;;;;;;8.73;6.28;;;39.10;73.60;;;;;;5085280;28;20044;-71
2023/08/22 08:28:34;;;;;;;10.25;5.60;;;38.60;74.20;;;;;;5079710;28;20379;-70
2023/08/22 08:31:38;;;;;;;7.60;5.97;;;40.10;72.40;;;;;;5091572;28;20107;-71
2023/08/22 08:34:42;;;;;;;7.53;5.75;;;39.90;70.70;;;;;;5096352;28;20473;-71
2023/08/22 08:37:48;;;;;;;9.27;5.80;;;40.80;69.90;;;;;;5089651;28;20039;-70
2023/08/22 08:40:55;;;;;;;8.30;5.72;;;39.90;70.00;;;;;;5087949;28;20043;-70
2023/08/22 08:44:01;;;;;;;7.57;4.93;;;39.20;69.10;;;;;;5102851;28;20058;-70
2023/08/22 08:47:07;;;;;;;6.47;5.15;;;38.80;69.30;;;;;;5091751;28;20043;-71
2023/08/22 08:50:11;;;;;;;6.65;5.20;;;38.80;69.80;;;;;;5097468;28;20047;-70
2023/08/22 08:53:15;;;;;;;8.75;4.55;;;40.90;69.30;;;;;;5087866;28;20051;-71
2023/08/22 08:56:19;;;;;;;6.57;4.90;;;42.40;67.00;;;;;;5103784;28;20055;-71
2023/08/22 08:59:23;;;;;;;6.35;5.40;;;41.40;66.00;;;;;;5083252;28;20505;-70
2023/08/22 09:02:28;;;;;;;8.25;5.00;;;40.10;67.60;;;;;;5086616;28;20047;-71
2023/08/22 09:05:32;;;;;;;12.40;5.05;;;41.30;67.30;;;;;;5087939;28;20027;-71
2023/08/22 09:08:36;;;;;;;7.10;4.85;;;41.30;66.50;;;;;;5093584;28;20051;-71
2023/08/22 09:11:46;;;;;;;5.70;4.72;;;41.20;64.30;;;;;;5094384;28;20039;-70
2023/08/22 09:14:49;;;;;;;;;;;42.00;64.90;;;;;;5087125;28;20039;-71
2023/08/22 09:17:57;;;;;;;4.72;4.32;;;40.90;65.40;;;;;;5089058;28;19915;-71
2023/08/22 09:21:04;;;;;;;7.78;4.82;;;44.20;63.70;;;;;;5075780;28;20047;-72
2023/08/22 09:24:09;;;;;;;8.55;4.95;;;42.20;62.60;;;;;;5097001;28;20390;-71
2023/08/22 09:27:14;;;;;;;13.18;4.90;;;42.10;63.30;;;;;;5090090;28;20498;-72
2023/08/22 09:30:23;;;;;;;9.02;5.55;;;40.10;64.30;;;;;;5090222;28;20034;-71
2023/08/22 09:33:27;;;;;;;5.78;5.10;;;42.30;62.90;;;;;;5091295;28;20470;-71
2023/08/22 09:36:31;;;;;;;6.35;4.75;;;41.50;63.60;;;;;;5086363;28;20051;-71
2023/08/22 09:39:38;;;;;;;10.57;5.03;;;41.80;62.10;;;;;;5086094;28;20035;-71
2023/08/22 09:42:42;;;;;;;11.07;5.20;;;42.40;61.80;;;;;;5089931;28;20051;-71
2023/08/22 09:45:49;;;;;;;10.20;5.03;;;43.30;60.40;;;;;;5084975;28;20039;-71
2023/08/22 09:48:56;;;;;;;5.38;4.30;;;43.50;60.80;;;;;;5084592;28;20058;-72
2023/08/22 09:52:02;;;;;;;5.90;4.72;;;46.00;60.40;;;;;;5086971;28;20050;-71
2023/08/22 09:55:09;;;;;;;6.32;4.20;;;46.50;58.90;;;;;;5085763;28;20043;-69
2023/08/22 09:58:15;;;;;;;5.95;3.90;;;49.30;57.20;;;;;;5086312;28;20533;-68
2023/08/22 10:01:20;;;;;;;10.45;4.03;;;51.20;55.30;;;;;;5083162;28;20043;-69
2023/08/22 10:04:24;;;;;;;7.57;3.90;;;51.40;55.00;;;;;;5082694;28;20051;-69
2023/08/22 10:07:28;;;;;;;4.82;3.63;;;51.80;54.40;;;;;;5084689;28;20055;-70
2023/08/22 10:10:32;;;;;;;6.78;4.03;;;52.50;54.00;;;;;;5088836;28;20411;-70
2023/08/22 10:13:38;;;;;;;8.20;4.30;;;52.00;54.10;;;;;;5079715;28;21128;-69
2023/08/22 10:16:45;;;;;;;9.05;4.55;;;47.70;54.80;;;;;;5090689;28;20043;-69
2023/08/22 10:19:49;;;;;;;6.75;3.97;;;47.00;56.70;;;;;;5098522;28;20038;-69
2023/08/22 10:22:54;;;;;;;17.52;4.18;;;50.10;55.70;;;;;;5079882;28;20497;-69
2023/08/22 10:26:02;;;;;;;7.05;3.83;;;51.00;54.30;;;;;;5074699;28;20043;-68
2023/08/22 10:29:18;;;;;;;7.25;3.42;;;50.90;54.70;;;;;;5083819;28;20039;-70
2023/08/22 10:32:23;;;;;;;7.70;4.00;;;49.50;54.50;;;;;;5071717;28;20039;-70
2023/08/22 10:35:28;;;;;;;8.18;3.92;;;51.20;54.40;;;;;;5083614;28;20031;-70
2023/08/22 10:38:57;;;;;;;7.47;3.67;;;52.70;53.00;;;;;;5087261;28;20042;-70
2023/08/22 10:42:01;;;;;;;10.18;4.07;;;48.80;54.30;;;;;;5092269;28;20451;-70
2023/08/22 10:45:16;;;;;;;7.10;3.55;;;49.60;54.40;;;;;;5084245;28;20026;-70
2023/08/22 10:48:21;;;;;;;7.00;3.58;;;51.70;53.70;;;;;;5090985;28;20047;-70
2023/08/22 10:51:43;;;;;;;10.60;3.80;;;53.50;52.80;;;;;;5090052;28;20051;-69
2023/08/22 10:55:19;;;;;;;4.97;2.85;;;52.30;52.40;;;;;;5085321;28;20042;-70
2023/08/22 10:58:36;;;;;;;6.57;3.20;;;54.30;51.20;;;;;;5085414;28;20486;-70
2023/08/22 11:01:40;;;;;;;7.33;3.10;;;55.10;50.50;;;;;;5083077;28;20039;-70
2023/08/22 11:04:45;;;;;;;5.82;3.20;;;53.70;50.10;;;;;;5085796;28;20039;-69
2023/08/22 11:07:51;;;;;;;6.22;3.00;;;54.10;49.40;;;;;;5086097;28;20596;-71
2023/08/22 11:10:57;;;;;;;4.22;3.00;;;53.60;49.80;;;;;;5090122;28;20043;-70
2023/08/22 11:14:01;;;;;;;6.72;2.90;;;54.80;48.80;;;;;;5085322;28;20047;-70
2023/08/22 11:17:05;;;;;;;5.47;3.15;;;55.80;48.10;;;;;;5095223;28;20046;-70
2023/08/22 11:20:11;;;;;;;7.78;2.85;;;55.60;48.80;;;;;;5090648;28;20070;-70
2023/08/22 11:23:15;;;;;;;6.57;2.90;;;53.40;48.70;;;;;;5096764;28;20043;-68
2023/08/22 11:26:22;;;;;;;4.47;3.33;;;50.30;50.60;;;;;;5090770;28;20042;-68
2023/08/22 11:29:27;;;;;;;6.10;3.30;;;49.50;50.70;;;;;;5084251;28;20477;-68
2023/08/22 11:32:33;;;;;;;4.20;2.85;;;51.30;50.50;;;;;;5084200;28;20397;-69
2023/08/22 11:35:39;;;;;;;4.47;2.70;;;52.10;48.70;;;;;;5090517;28;20046;-68
2023/08/22 11:38:46;;;;;;;9.18;3.10;;;52.40;49.00;;;;;;5088410;28;20394;-71
2023/08/22 11:41:50;;;;;;;4.68;3.20;;;48.00;49.70;;;;;;5094003;28;20043;-69
2023/08/22 11:45:08;;;;;;;5.82;2.90;;;47.90;50.90;;;;;;5090900;28;20493;-70
2023/08/22 11:48:16;;;;;;;3.33;2.75;;;50.00;50.10;;;;;;5089656;28;20043;-68
2023/08/22 11:51:21;;;;;;;4.47;3.40;;;49.40;50.30;;;;;;5092405;28;20051;-69
2023/08/22 11:54:27;;;;;;;5.00;3.22;;;50.00;49.90;;;;;;5085130;28;20044;-70
2023/08/22 11:57:32;;;;;;;3.83;2.95;;;47.80;50.50;;;;;;5090191;28;20042;-70
2023/08/22 12:00:36;;;;;;;7.95;3.28;;;46.70;51.90;;;;;;5107180;28;20039;-68
2023/08/22 12:03:44;;;;;;;5.63;3.15;;;48.80;50.00;;;;;;5089579;28;20031;-69
2023/08/22 12:07:00;;;;;;;5.32;2.95;;;49.40;48.80;;;;;;5072772;28;20068;-68
2023/08/22 12:10:12;;;;;;;4.07;3.05;;;50.30;48.10;;;;;;5072869;28;20047;-69
2023/08/22 12:13:25;;;;;;;7.00;3.42;;;51.30;48.20;;;;;;5078778;28;20398;-69
2023/08/22 12:16:29;;;;;;;3.58;2.80;;;51.40;47.60;;;;;;5083921;28;20047;-68
2023/08/22 12:19:32;;;;;;;11.00;3.17;;;50.10;46.20;;;;;;5092501;28;20489;-67
2023/08/22 12:22:37;;;;;;;6.78;3.35;;;49.50;45.80;;;;;;5085606;28;20043;-68
2023/08/22 12:25:42;;;;;;;9.43;3.65;;;49.50;46.20;;;;;;5092216;28;20039;-67
2023/08/22 12:39:12;;;;;;;6.72;2.80;;;49.70;46.00;;;;;;5070728;28;20036;-69
2023/08/22 12:42:16;;;;;;;25.08;4.70;;;50.00;45.70;;;;;;5086403;28;20047;-68
2023/08/22 12:45:22;;;;;;;4.68;3.10;;;51.10;45.40;;;;;;5085016;28;20047;-68
2023/08/22 12:48:26;;;;;;;10.07;3.13;;;51.70;45.60;;;;;;5071727;28;20047;-69
2023/08/22 12:51:30;;;;;;;7.68;2.95;;;51.70;45.00;;;;;;5071577;28;20051;-68
2023/08/22 12:54:34;;;;;;;15.55;4.60;;;50.50;45.70;;;;;;5059354;28;20059;-69
2023/08/22 12:57:40;;;;;;;4.55;3.10;;;50.30;45.40;;;;;;5071795;28;20395;-68
2023/08/22 13:00:44;;;;;;;4.22;3.10;;;50.10;45.70;;;;;;5071958;28;20387;-68
2023/08/22 13:03:52;;;;;;;4.78;2.80;;;49.20;46.10;;;;;;5071949;28;20047;-69
2023/08/22 13:06:56;;;;;;;6.82;2.80;;;49.30;45.90;;;;;;5071801;28;20391;-68
2023/08/22 13:10:01;;;;;;;4.00;3.08;;;49.50;46.30;;;;;;5071631;28;20494;-71
2023/08/22 13:13:05;;;;;;;5.55;3.25;;;49.50;46.60;;;;;;5071494;28;20067;-69
2023/08/22 13:16:09;;;;;;;5.45;3.25;;;47.60;47.30;;;;;;5071627;28;20514;-68
2023/08/22 13:19:17;;;;;;;6.75;3.75;;;46.20;48.10;;;;;;5070570;28;20035;-69
2023/08/22 13:22:22;;;;;;;6.25;3.90;;;46.60;48.10;;;;;;5078976;28;20039;-68
2023/08/22 13:25:26;;;;;;;8.10;3.72;;;45.90;48.20;;;;;;5091544;28;20043;-69
2023/08/22 13:28:31;;;;;;;11.10;3.90;;;45.00;49.10;;;;;;5091259;28;20044;-69
2023/08/22 13:31:38;;;;;;;6.18;4.30;;;45.00;49.50;;;;;;5091086;28;20058;-67
2023/08/22 13:34:42;;;;;;;4.72;3.90;;;45.20;49.20;;;;;;5091392;28;20481;-69
2023/08/22 13:37:47;;;;;;;9.70;4.22;;;43.60;49.20;;;;;;5091319;28;20039;-67
2023/08/22 13:40:51;;;;;;;8.05;4.45;;;43.80;50.00;;;;;;5090316;28;20047;-68
2023/08/22 13:43:56;;;;;;;4.80;4.10;;;43.40;50.40;;;;;;5091349;28;20043;-69
2023/08/22 13:47:00;;;;;;;12.38;5.00;;;43.50;50.30;;;;;;5091310;28;20047;-68
2023/08/22 13:50:05;;;;;;;5.63;4.50;;;42.80;50.80;;;;;;5091203;28;20043;-70
2023/08/22 13:53:09;;;;;;;5.35;4.25;;;42.20;51.60;;;;;;5090462;28;20493;-70
2023/08/22 13:56:13;;;;;;;7.40;4.22;;;41.70;50.50;;;;;;5091178;28;20497;-68
2023/08/22 13:59:19;;;;;;;9.18;4.63;;;42.20;51.70;;;;;;5090660;28;20047;-69
2023/08/22 14:02:23;;;;;;;10.73;4.53;;;42.50;51.20;;;;;;5077895;28;20506;-71
2023/08/22 14:05:27;;;;;;;13.52;5.13;;;42.10;50.30;;;;;;5091001;28;20418;-69
2023/08/22 14:08:31;;;;;;;13.57;4.90;;;41.20;50.40;;;;;;5090934;28;20043;-70
2023/08/22 14:11:35;;;;;;;8.43;4.60;;;41.00;50.50;;;;;;5090003;28;20047;-69
2023/08/22 14:14:39;;;;;;;7.88;5.03;;;40.10;51.20;;;;;;5090698;28;20123;-70
2023/08/22 14:17:43;;;;;;;8.90;4.95;;;39.60;52.00;;;;;;5090418;28;20043;-69
2023/08/22 14:20:47;;;;;;;6.05;5.07;;;39.70;52.10;;;;;;5090343;28;20043;-70
2023/08/22 14:23:51;;;;;;;7.43;5.10;;;39.80;52.90;;;;;;5090449;28;20230;-70
2023/08/22 14:26:55;;;;;;;10.75;4.88;;;40.30;52.70;;;;;;5090792;28;20055;-69
2023/08/22 14:30:00;;;;;;;9.00;5.15;;;40.40;52.70;;;;;;5090504;28;20035;-69
2023/08/22 14:33:06;;;;;;;9.15;4.55;;;40.40;52.50;;;;;;5090273;28;20047;-70
2023/08/22 14:36:10;;;;;;;6.95;5.10;;;40.20;52.30;;;;;;5090691;28;20051;-70
2023/08/22 14:39:15;;;;;;;8.98;4.85;;;40.10;52.50;;;;;;5089378;28;20038;-70
2023/08/22 14:42:19;;;;;;;8.45;4.65;;;40.00;52.30;;;;;;5089512;28;20039;-69
2023/08/22 14:45:24;;;;;;;8.57;4.70;;;40.00;53.10;;;;;;5090614;28;20106;-70
2023/08/22 14:48:28;;;;;;;6.53;4.82;;;39.80;52.90;;;;;;5089865;28;20051;-70
2023/08/22 14:51:32;;;;;;;7.47;4.95;;;40.00;52.60;;;;;;5071272;28;20079;-70
2023/08/22 14:54:36;;;;;;;8.50;4.47;;;40.00;52.50;;;;;;5074052;28;20044;-70
2023/08/22 14:57:41;;;;;;;7.45;4.82;;;40.10;52.20;;;;;;5073979;28;20047;-70
2023/08/22 15:00:48;;;;;;;5.53;4.03;;;40.00;52.70;;;;;;5073849;28;20047;-69
2023/08/22 15:03:52;;;;;;;7.90;5.13;;;39.90;52.40;;;;;;5074001;28;20048;-69
2023/08/22 15:06:56;;;;;;;6.65;4.40;;;40.00;52.70;;;;;;5085396;28;20039;-69
2023/08/22 15:10:01;;;;;;;6.38;3.97;;;40.00;52.70;;;;;;5076361;28;20044;-69
2023/08/22 15:13:05;;;;;;;6.90;4.60;;;40.00;52.40;;;;;;5073073;28;20067;-69
2023/08/22 15:16:09;;;;;;;8.27;4.88;;;39.90;52.60;;;;;;5073519;28;20063;-70
2023/08/22 15:19:14;;;;;;;8.82;4.60;;;39.80;52.00;;;;;;5094069;28;20063;-69
2023/08/22 15:22:18;;;;;;;7.55;4.30;;;39.90;51.80;;;;;;5093485;28;20039;-70
2023/08/22 15:25:22;;;;;;;7.40;4.13;;;40.00;52.10;;;;;;5094021;28;20051;-70
2023/08/22 15:28:26;;;;;;;9.13;3.92;;;39.40;52.00;;;;;;5093539;28;20047;-70
2023/08/22 15:31:30;;;;;;;5.15;4.18;;;38.70;51.40;;;;;;5093142;28;20055;-69
2023/08/22 15:34:34;;;;;;;6.40;4.28;;;38.50;53.20;;;;;;5081401;28;20047;-70
2023/08/22 15:37:38;;;;;;;8.85;4.03;;;38.30;54.30;;;;;;5093352;28;20043;-70
2023/08/22 15:40:47;;;;;;;6.60;4.38;;;38.40;53.60;;;;;;5081117;28;20398;-69
2023/08/22 15:43:52;;;;;;;5.97;3.65;;;38.70;52.40;;;;;;5093373;28;20517;-70
2023/08/22 15:46:56;;;;;;;3.70;3.35;;;38.60;52.10;;;;;;5093329;28;20047;-70
2023/08/22 15:50:00;;;;;;;3.88;3.35;;;38.60;52.00;;;;;;5082536;28;20490;-68
2023/08/22 15:53:04;;;;;;;5.80;3.33;;;38.50;51.00;;;;;;5075110;28;20044;-70
2023/08/22 15:56:08;;;;;;;4.35;3.40;;;38.20;50.70;;;;;;5073271;28;20039;-69
2023/08/22 15:59:12;;;;;;;5.78;3.60;;;38.00;50.50;;;;;;5072586;28;20059;-70
2023/08/22 16:02:16;;;;;;;6.32;3.92;;;37.90;51.50;;;;;;5072380;28;20047;-69
2023/08/22 16:05:20;;;;;;;10.68;3.80;;;37.80;51.70;;;;;;5073393;28;20044;-71
2023/08/22 16:08:25;;;;;;;6.72;3.92;;;37.70;52.30;;;;;;5072679;28;20051;-69
2023/08/22 16:11:29;;;;;;;6.43;3.80;;;37.50;52.60;;;;;;5072106;28;20510;-70